createdAt,value
2023-05-14T00:00:17.487Z,105.20
2023-05-14T00:01:17.404Z,103.34
2023-05-14T00:02:17.520Z,104.09
2023-05-14T00:03:17.623Z,103.86
2023-05-14T00:04:17.613Z,102.76
2023-05-14T00:05:17.627Z,102.27
2023-05-14T00:06:17.747Z,105.32
2023-05-14T00:07:17.742Z,105.89
2023-05-14T00:08:17.796Z,103.48
2023-05-14T00:09:17.876Z,103.80
2023-05-14T00:10:17.913Z,103.36
2023-05-14T00:11:17.967Z,103.34
2023-05-14T00:12:18.089Z,100.85
2023-05-14T00:13:18.094Z,105.25
2023-05-14T00:14:18.217Z,104.38
2023-05-14T00:15:18.207Z,105.35
2023-05-14T00:16:18.358Z,103.65
2023-05-14T00:17:18.371Z,105.69
2023-05-14T00:18:18.425Z,101.83
2023-05-14T00:19:18.457Z,102.57
2023-05-14T00:20:18.559Z,102.07
2023-05-14T00:21:18.605Z,105.86
2023-05-14T00:22:18.694Z,103.20
2023-05-14T00:23:18.743Z,103.81
2023-05-14T00:24:18.830Z,102.72
2023-05-14T00:25:18.810Z,101.60
2023-05-14T00:26:18.934Z,102.25
2023-05-14T00:27:18.954Z,102.20
2023-05-14T00:28:19.024Z,105.45
2023-05-14T00:29:19.022Z,101.25
2023-05-14T00:30:19.147Z,103.76
2023-05-14T00:31:19.213Z,102.03
2023-05-14T00:32:19.260Z,103.58
2023-05-14T00:33:19.296Z,102.80
2023-05-14T00:34:19.293Z,105.61
2023-05-14T00:35:19.361Z,103.88
2023-05-14T00:36:19.441Z,104.02
2023-05-14T00:37:19.489Z,104.23
2023-05-14T00:38:19.691Z,103.45
2023-05-14T00:39:19.602Z,104.26
2023-05-14T00:40:19.601Z,105.34
2023-05-14T00:41:19.613Z,102.23
2023-05-14T00:42:19.710Z,103.05
2023-05-14T00:43:19.785Z,103.94
2023-05-14T00:44:19.776Z,103.45
2023-05-14T00:45:19.910Z,105.05
2023-05-14T00:46:19.997Z,102.46
2023-05-14T00:47:19.999Z,103.46
2023-05-14T00:48:20.110Z,103.64
2023-05-14T00:49:20.182Z,101.69
2023-05-14T00:50:20.219Z,101.64
2023-05-14T00:51:20.314Z,98.67
2023-05-14T00:52:20.348Z,102.67
2023-05-14T00:53:20.411Z,101.44
2023-05-14T00:54:20.424Z,99.75
2023-05-14T00:55:20.462Z,102.40
2023-05-14T00:56:20.535Z,105.79
2023-05-14T00:57:20.546Z,103.06
2023-05-14T00:58:20.595Z,100.14
2023-05-14T00:59:20.655Z,102.32
2023-05-14T01:00:20.738Z,102.34
2023-05-14T01:01:20.919Z,101.20
2023-05-14T01:02:20.856Z,102.43
2023-05-14T01:03:21.033Z,100.92
2023-05-14T01:04:20.932Z,103.25
2023-05-14T01:05:21.040Z,103.31
2023-05-14T01:06:21.122Z,101.29
2023-05-14T01:07:21.134Z,102.61
2023-05-14T01:08:21.221Z,98.77
2023-05-14T01:09:21.236Z,100.16
2023-05-14T01:10:21.527Z,103.46
2023-05-14T01:11:21.356Z,103.85
2023-05-14T01:12:21.357Z,103.53
2023-05-14T01:13:21.472Z,102.64
2023-05-14T01:14:21.584Z,101.53
2023-05-14T01:15:21.652Z,100.30
2023-05-14T01:16:21.740Z,102.68
2023-05-14T01:17:21.745Z,100.15
2023-05-14T01:18:21.813Z,102.53
2023-05-14T01:19:21.858Z,102.58
2023-05-14T01:20:22.112Z,100.88
2023-05-14T01:21:21.961Z,100.25
2023-05-14T01:22:21.988Z,100.63
2023-05-14T01:23:22.117Z,102.33
2023-05-14T01:24:22.148Z,100.15
2023-05-14T01:25:22.218Z,103.33
2023-05-14T01:26:22.242Z,101.14
2023-05-14T01:27:22.262Z,100.17
2023-05-14T01:28:22.301Z,100.97
2023-05-14T01:29:22.347Z,102.15
2023-05-14T01:30:22.770Z,102.36
2023-05-14T01:31:22.501Z,102.42
2023-05-14T01:32:22.564Z,100.88
2023-05-14T01:33:22.561Z,101.81
2023-05-14T01:34:22.639Z,102.22
2023-05-14T01:35:22.642Z,101.42
2023-05-14T01:36:22.685Z,98.57
2023-05-14T01:37:22.711Z,100.01
2023-05-14T01:38:22.751Z,100.67
2023-05-14T01:39:22.779Z,101.36
2023-05-14T01:40:23.006Z,102.30
2023-05-14T01:41:22.874Z,102.53
2023-05-14T01:42:22.898Z,102.14
2023-05-14T01:43:23.013Z,100.26
2023-05-14T01:44:23.035Z,102.52
2023-05-14T01:45:23.036Z,101.02
2023-05-14T01:46:23.111Z,102.50
2023-05-14T01:47:23.066Z,101.93
2023-05-14T01:48:23.086Z,100.79
2023-05-14T01:49:23.135Z,101.28
2023-05-14T01:50:23.315Z,101.83
2023-05-14T01:51:23.262Z,100.95
2023-05-14T01:52:23.303Z,100.54
2023-05-14T01:53:23.395Z,100.02
2023-05-14T01:54:23.459Z,101.57
2023-05-14T01:55:23.471Z,99.59
2023-05-14T01:56:23.484Z,101.29
2023-05-14T01:57:23.447Z,100.93
2023-05-14T01:58:23.437Z,99.14
2023-05-14T01:59:23.460Z,101.85
2023-05-14T02:00:23.935Z,99.72
2023-05-14T02:01:23.588Z,102.07
2023-05-14T02:02:23.592Z,105.10
2023-05-14T02:03:23.529Z,102.32
2023-05-14T02:04:23.583Z,101.55
2023-05-14T02:05:23.572Z,100.50
2023-05-14T02:06:23.616Z,98.78
2023-05-14T02:07:23.720Z,101.45
2023-05-14T02:08:23.780Z,97.53
2023-05-14T02:09:23.944Z,100.34
2023-05-14T02:10:24.040Z,98.49
2023-05-14T02:11:23.896Z,100.15
2023-05-14T02:12:23.935Z,101.60
2023-05-14T02:13:23.912Z,98.06
2023-05-14T02:14:23.918Z,99.15
2023-05-14T02:15:23.936Z,98.83
2023-05-14T02:16:23.952Z,100.77
2023-05-14T02:17:23.927Z,98.90
2023-05-14T02:18:23.972Z,100.44
2023-05-14T02:19:24.090Z,100.04
2023-05-14T02:20:24.553Z,101.58
2023-05-14T02:21:24.236Z,99.37
2023-05-14T02:22:24.188Z,99.25
2023-05-14T02:23:34.091Z,97.73
2023-05-14T02:24:25.243Z,98.02
2023-05-14T02:25:24.132Z,98.71
2023-05-14T02:26:24.132Z,98.70
2023-05-14T02:27:24.131Z,99.19
2023-05-14T02:28:24.111Z,99.05
2023-05-14T02:29:24.185Z,102.13
2023-05-14T02:30:24.224Z,102.56
2023-05-14T02:31:24.145Z,99.35
2023-05-14T02:32:24.135Z,99.23
2023-05-14T02:33:24.148Z,99.98
2023-05-14T02:34:24.105Z,98.91
2023-05-14T02:35:24.158Z,99.24
2023-05-14T02:36:24.093Z,100.28
2023-05-14T02:37:24.045Z,96.69
2023-05-14T02:38:24.033Z,98.32
2023-05-14T02:39:24.035Z,98.63
2023-05-14T02:40:24.372Z,101.08
2023-05-14T02:41:24.079Z,100.72
2023-05-14T02:42:24.054Z,98.66
2023-05-14T02:43:24.035Z,96.64
2023-05-14T02:44:24.025Z,99.27
2023-05-14T02:45:24.006Z,98.18
2023-05-14T02:46:24.105Z,98.79
2023-05-14T02:47:24.045Z,100.73
2023-05-14T02:48:24.018Z,98.43
2023-05-14T02:49:23.967Z,99.19
2023-05-14T02:50:24.217Z,100.03
2023-05-14T02:51:23.993Z,99.96
2023-05-14T02:52:23.986Z,100.61
2023-05-14T02:53:23.970Z,98.33
2023-05-14T02:54:23.974Z,98.58
2023-05-14T02:55:23.989Z,99.95
2023-05-14T02:56:23.966Z,99.51
2023-05-14T02:57:23.953Z,94.85
2023-05-14T02:58:26.461Z,98.56
2023-05-14T02:59:23.923Z,98.66
2023-05-14T03:00:24.182Z,98.68
2023-05-14T03:01:24.112Z,99.45
2023-05-14T03:02:23.974Z,100.40
2023-05-14T03:03:23.983Z,99.73
2023-05-14T03:04:23.993Z,100.39
2023-05-14T03:05:23.900Z,99.65
2023-05-14T03:06:23.850Z,99.39
2023-05-14T03:07:23.925Z,98.96
2023-05-14T03:08:23.885Z,99.56
2023-05-14T03:09:23.861Z,99.28
2023-05-14T03:10:23.975Z,101.05
2023-05-14T03:11:23.846Z,97.69
2023-05-14T03:12:23.850Z,97.76
2023-05-14T03:13:23.832Z,94.57
2023-05-14T03:14:23.846Z,102.09
2023-05-14T03:15:23.860Z,97.13
2023-05-14T03:16:23.901Z,97.32
2023-05-14T03:17:23.875Z,99.24
2023-05-14T03:18:24.000Z,98.82
2023-05-14T03:19:23.809Z,98.27
2023-05-14T03:20:23.953Z,100.07
2023-05-14T03:21:23.799Z,98.98
2023-05-14T03:22:23.789Z,98.48
2023-05-14T03:23:23.784Z,96.95
2023-05-14T03:24:23.729Z,96.52
2023-05-14T03:25:23.733Z,95.24
2023-05-14T03:26:23.746Z,99.43
2023-05-14T03:27:23.739Z,94.95
2023-05-14T03:28:23.731Z,96.57
2023-05-14T03:29:23.757Z,97.55
2023-05-14T03:30:23.915Z,100.78
2023-05-14T03:31:23.769Z,97.89
2023-05-14T03:32:23.726Z,98.55
2023-05-14T03:33:23.684Z,99.03
2023-05-14T03:34:23.687Z,98.90
2023-05-14T03:35:23.705Z,98.29
2023-05-14T03:36:23.690Z,96.64
2023-05-14T03:37:23.665Z,98.02
2023-05-14T03:38:23.686Z,97.24
2023-05-14T03:39:23.651Z,97.33
2023-05-14T03:40:23.897Z,96.01
2023-05-14T03:41:23.896Z,98.69
2023-05-14T03:42:23.624Z,96.74
2023-05-14T03:43:23.624Z,96.86
2023-05-14T03:44:23.634Z,95.80
2023-05-14T03:45:23.587Z,98.01
2023-05-14T03:46:23.605Z,99.48
2023-05-14T03:47:23.610Z,98.68
2023-05-14T03:48:23.686Z,95.94
2023-05-14T03:49:23.587Z,95.07
2023-05-14T03:50:23.688Z,98.05
2023-05-14T03:51:23.581Z,96.78
2023-05-14T03:52:23.583Z,95.35
2023-05-14T03:53:23.537Z,96.82
2023-05-14T03:54:23.527Z,96.92
2023-05-14T03:55:23.518Z,97.81
2023-05-14T03:56:23.537Z,96.74
2023-05-14T03:57:23.539Z,97.13
2023-05-14T03:58:23.529Z,98.34
2023-05-14T03:59:23.540Z,95.48
2023-05-14T04:00:23.624Z,97.10
2023-05-14T04:01:23.518Z,97.17
2023-05-14T04:02:23.606Z,97.10
2023-05-14T04:03:23.605Z,97.04
2023-05-14T04:04:23.520Z,97.60
2023-05-14T04:05:23.520Z,97.25
2023-05-14T04:06:23.499Z,96.88
2023-05-14T04:07:23.446Z,95.99
2023-05-14T04:08:23.470Z,98.28
2023-05-14T04:09:23.426Z,96.09
2023-05-14T04:10:23.614Z,96.68
2023-05-14T04:11:23.418Z,96.83
2023-05-14T04:12:23.429Z,94.38
2023-05-14T04:13:23.430Z,96.16
2023-05-14T04:14:23.404Z,96.50
2023-05-14T04:15:23.425Z,96.69
2023-05-14T04:16:23.454Z,96.05
2023-05-14T04:17:23.453Z,93.49
2023-05-14T04:18:23.436Z,95.70
2023-05-14T04:19:23.438Z,95.47
2023-05-14T04:20:23.624Z,93.65
2023-05-14T04:21:23.525Z,94.72
2023-05-14T04:22:23.633Z,99.16
2023-05-14T04:23:23.721Z,94.74
2023-05-14T04:24:23.707Z,93.45
2023-05-14T04:25:23.721Z,95.13
2023-05-14T04:26:23.736Z,97.38
2023-05-14T04:27:23.752Z,95.77
2023-05-14T04:28:23.751Z,95.89
2023-05-14T04:29:23.807Z,96.54
2023-05-14T04:30:24.076Z,98.30
2023-05-14T04:31:24.112Z,96.96
2023-05-14T04:32:24.141Z,92.43
2023-05-14T04:33:24.122Z,94.80
2023-05-14T04:34:24.116Z,96.52
2023-05-14T04:35:25.141Z,97.58
2023-05-14T04:36:24.130Z,93.93
2023-05-14T04:37:24.145Z,97.22
2023-05-14T04:38:24.099Z,96.99
2023-05-14T04:39:24.212Z,95.65
2023-05-14T04:40:24.548Z,94.50
2023-05-14T04:41:24.191Z,94.38
2023-05-14T04:42:24.238Z,98.50
2023-05-14T04:43:24.254Z,95.52
2023-05-14T04:44:24.216Z,91.02
2023-05-14T04:45:24.268Z,95.89
2023-05-14T04:46:24.362Z,95.44
2023-05-14T04:47:24.370Z,93.99
2023-05-14T04:48:24.353Z,94.37
2023-05-14T04:49:24.319Z,94.57
2023-05-14T04:50:24.628Z,94.53
2023-05-14T04:51:24.437Z,95.26
2023-05-14T04:52:24.516Z,94.28
2023-05-14T04:53:24.522Z,96.17
2023-05-14T04:54:24.577Z,93.34
2023-05-14T04:55:24.575Z,94.36
2023-05-14T04:56:24.592Z,93.66
2023-05-14T04:57:24.564Z,95.33
2023-05-14T04:58:24.638Z,92.33
2023-05-14T04:59:24.743Z,94.74
2023-05-14T05:00:24.973Z,95.04
2023-05-14T05:01:24.834Z,93.89
2023-05-14T05:02:24.871Z,93.57
2023-05-14T05:03:25.228Z,96.34
2023-05-14T05:04:25.011Z,96.28
2023-05-14T05:05:25.031Z,94.62
2023-05-14T05:06:25.069Z,89.73
2023-05-14T05:07:25.036Z,91.37
2023-05-14T05:08:25.042Z,94.02
2023-05-14T05:09:25.108Z,93.96
2023-05-14T05:10:25.331Z,92.99
2023-05-14T05:11:25.127Z,92.43
2023-05-14T05:12:25.170Z,95.92
2023-05-14T05:13:25.208Z,93.47
2023-05-14T05:14:25.185Z,92.72
2023-05-14T05:15:26.506Z,93.50
2023-05-14T05:16:25.232Z,98.52
2023-05-14T05:17:25.197Z,91.98
2023-05-14T05:18:25.274Z,94.00
2023-05-14T05:19:35.837Z,93.12
2023-05-14T05:20:26.253Z,93.32
2023-05-14T05:21:25.235Z,93.67
2023-05-14T05:22:25.228Z,93.37
2023-05-14T05:23:25.205Z,93.70
2023-05-14T05:24:25.219Z,91.12
2023-05-14T05:25:25.218Z,93.41
2023-05-14T05:26:25.187Z,91.58
2023-05-14T05:27:25.193Z,96.00
2023-05-14T05:28:25.174Z,89.55
2023-05-14T05:29:25.221Z,93.61
2023-05-14T05:30:25.464Z,93.23
2023-05-14T05:31:25.224Z,92.58
2023-05-14T05:32:25.204Z,94.98
2023-05-14T05:33:25.134Z,95.76
2023-05-14T05:34:25.132Z,93.70
2023-05-14T05:35:25.135Z,93.36
2023-05-14T05:36:25.148Z,93.00
2023-05-14T05:37:25.163Z,93.08
2023-05-14T05:38:25.093Z,93.87
2023-05-14T05:39:25.118Z,89.93
2023-05-14T05:40:25.332Z,93.57
2023-05-14T05:41:25.090Z,94.24
2023-05-14T05:42:25.089Z,90.57
2023-05-14T05:43:25.089Z,90.40
2023-05-14T05:44:25.128Z,90.99
2023-05-14T05:45:25.110Z,93.91
2023-05-14T05:46:25.267Z,92.40
2023-05-14T05:47:25.282Z,90.65
2023-05-14T05:48:25.234Z,94.03
2023-05-14T05:49:25.234Z,93.77
2023-05-14T05:50:25.465Z,89.79
2023-05-14T05:51:25.299Z,94.19
2023-05-14T05:52:25.431Z,91.10
2023-05-14T05:53:25.419Z,93.18
2023-05-14T05:54:25.422Z,91.47
2023-05-14T05:55:25.427Z,91.90
2023-05-14T05:56:25.489Z,93.29
2023-05-14T05:57:26.373Z,92.73
2023-05-14T05:58:25.508Z,94.10
2023-05-14T05:59:25.514Z,92.22
2023-05-14T06:00:25.739Z,94.64
2023-05-14T06:01:25.556Z,92.11
2023-05-14T06:02:25.628Z,93.77
2023-05-14T06:03:25.564Z,92.71
2023-05-14T06:04:25.537Z,88.20
2023-05-14T06:05:25.636Z,90.87
2023-05-14T06:06:25.652Z,89.59
2023-05-14T06:07:25.781Z,92.97
2023-05-14T06:08:25.883Z,91.02
2023-05-14T06:09:25.907Z,91.75
2023-05-14T06:10:26.214Z,94.74
2023-05-14T06:11:26.103Z,93.12
2023-05-14T06:12:26.207Z,92.91
2023-05-14T06:13:26.217Z,91.19
2023-05-14T06:14:26.232Z,90.72
2023-05-14T06:15:26.201Z,92.53
2023-05-14T06:16:26.234Z,91.94
2023-05-14T06:17:26.229Z,91.94
2023-05-14T06:18:26.396Z,92.56
2023-05-14T06:19:26.349Z,90.93
2023-05-14T06:20:26.539Z,93.52
2023-05-14T06:21:26.443Z,91.90
2023-05-14T06:22:26.438Z,92.78
2023-05-14T06:23:26.565Z,90.72
2023-05-14T06:24:26.663Z,93.70
2023-05-14T06:25:26.686Z,90.26
2023-05-14T06:26:26.717Z,92.28
2023-05-14T06:27:26.698Z,92.78
2023-05-14T06:28:26.701Z,93.28
2023-05-14T06:29:26.704Z,92.96
2023-05-14T06:30:26.931Z,92.94
2023-05-14T06:31:26.896Z,92.33
2023-05-14T06:32:27.008Z,92.52
2023-05-14T06:33:26.971Z,88.90
2023-05-14T06:34:27.012Z,92.09
2023-05-14T06:35:26.983Z,92.00
2023-05-14T06:36:27.026Z,90.93
2023-05-14T06:37:27.031Z,91.64
2023-05-14T06:38:27.064Z,90.32
2023-05-14T06:39:27.078Z,91.21
2023-05-14T06:40:27.089Z,90.00
2023-05-14T06:41:27.082Z,88.56
2023-05-14T06:42:27.102Z,88.53
2023-05-14T06:43:27.072Z,91.84
2023-05-14T06:44:27.171Z,90.93
2023-05-14T06:45:27.179Z,89.90
2023-05-14T06:46:27.163Z,90.40
2023-05-14T06:47:27.198Z,91.29
2023-05-14T06:48:27.355Z,88.98
2023-05-14T06:49:27.189Z,90.50
2023-05-14T06:50:27.328Z,91.64
2023-05-14T06:51:27.346Z,90.38
2023-05-14T06:52:27.474Z,89.59
2023-05-14T06:53:27.590Z,88.91
2023-05-14T06:54:27.583Z,89.83
2023-05-14T06:55:27.571Z,88.73
2023-05-14T06:56:27.579Z,91.19
2023-05-14T06:57:27.630Z,92.26
2023-05-14T06:58:27.594Z,89.50
2023-05-14T06:59:27.690Z,88.92
2023-05-14T07:00:27.757Z,88.56
2023-05-14T07:01:27.720Z,89.17
2023-05-14T07:02:27.720Z,91.54
2023-05-14T07:03:27.712Z,89.59
2023-05-14T07:04:27.896Z,87.42
2023-05-14T07:05:27.850Z,90.71
2023-05-14T07:06:27.829Z,90.41
2023-05-14T07:07:27.772Z,89.59
2023-05-14T07:08:27.791Z,87.58
2023-05-14T07:09:27.842Z,88.34
2023-05-14T07:10:27.832Z,89.33
2023-05-14T07:11:27.860Z,90.62
2023-05-14T07:12:27.977Z,87.85
2023-05-14T07:13:28.648Z,86.12
2023-05-14T07:14:28.106Z,88.37
2023-05-14T07:15:28.104Z,87.37
2023-05-14T07:16:28.087Z,87.62
2023-05-14T07:17:28.353Z,89.08
2023-05-14T07:18:28.183Z,89.16
2023-05-14T07:19:28.153Z,87.10
2023-05-14T07:20:28.321Z,92.68
2023-05-14T07:21:28.300Z,87.38
2023-05-14T07:22:28.405Z,87.79
2023-05-14T07:23:28.480Z,89.83
2023-05-14T07:24:28.566Z,88.42
2023-05-14T07:25:28.682Z,89.87
2023-05-14T07:26:28.679Z,88.74
2023-05-14T07:27:28.696Z,88.16
2023-05-14T07:28:28.699Z,87.76
2023-05-14T07:29:28.629Z,86.39
2023-05-14T07:30:28.705Z,88.65
2023-05-14T07:31:28.791Z,87.48
2023-05-14T07:32:28.846Z,85.94
2023-05-14T07:33:28.806Z,87.29
2023-05-14T07:34:28.779Z,85.78
2023-05-14T07:35:28.797Z,83.82
2023-05-14T07:36:28.783Z,85.96
2023-05-14T07:37:28.794Z,86.77
2023-05-14T07:38:28.855Z,87.04
2023-05-14T07:39:28.925Z,87.23
2023-05-14T07:40:29.023Z,87.03
2023-05-14T07:41:29.104Z,85.49
2023-05-14T07:42:35.944Z,84.08
2023-05-14T07:43:30.179Z,84.30
2023-05-14T07:44:29.149Z,84.88
2023-05-14T07:45:29.206Z,84.88
2023-05-14T07:46:29.186Z,86.85
2023-05-14T07:47:29.290Z,85.86
2023-05-14T07:48:29.225Z,86.68
2023-05-14T07:49:29.144Z,86.29
2023-05-14T07:50:29.118Z,89.70
2023-05-14T07:51:29.140Z,87.88
2023-05-14T07:52:29.116Z,87.65
2023-05-14T07:53:29.119Z,86.93
2023-05-14T07:54:29.160Z,88.22
2023-05-14T07:55:29.174Z,90.57
2023-05-14T07:56:29.302Z,86.11
2023-05-14T07:57:29.310Z,89.62
2023-05-14T07:58:29.416Z,87.87
2023-05-14T07:59:29.419Z,87.28
2023-05-14T08:00:29.524Z,90.13
2023-05-14T08:01:29.604Z,87.89
2023-05-14T08:02:29.744Z,86.84
2023-05-14T08:03:29.853Z,89.25
2023-05-14T08:04:29.812Z,89.68
2023-05-14T08:05:29.812Z,90.05
2023-05-14T08:06:29.890Z,88.45
2023-05-14T08:07:29.941Z,89.86
2023-05-14T08:08:30.002Z,89.55
2023-05-14T08:09:30.024Z,90.67
2023-05-14T08:10:30.256Z,86.10
2023-05-14T08:11:30.145Z,90.71
2023-05-14T08:12:30.201Z,88.69
2023-05-14T08:13:30.234Z,88.70
2023-05-14T08:14:30.300Z,90.03
2023-05-14T08:15:30.313Z,89.95
2023-05-14T08:16:30.410Z,90.35
2023-05-14T08:17:30.506Z,88.67
2023-05-14T08:18:30.548Z,89.76
2023-05-14T08:19:30.504Z,91.01
2023-05-14T08:20:30.546Z,91.27
2023-05-14T08:21:30.599Z,91.08
2023-05-14T08:22:30.680Z,92.61
2023-05-14T08:23:30.719Z,93.24
2023-05-14T08:24:30.754Z,89.84
2023-05-14T08:25:30.833Z,94.86
2023-05-14T08:26:30.855Z,91.35
2023-05-14T08:27:30.907Z,91.53
2023-05-14T08:28:30.910Z,90.29
2023-05-14T08:29:30.992Z,92.75
2023-05-14T08:30:31.042Z,92.81
2023-05-14T08:31:31.148Z,89.82
2023-05-14T08:32:31.133Z,91.65
2023-05-14T08:33:31.155Z,89.92
2023-05-14T08:34:31.199Z,89.55
2023-05-14T08:35:31.256Z,89.88
2023-05-14T08:36:31.268Z,91.87
2023-05-14T08:37:31.348Z,89.94
2023-05-14T08:38:31.362Z,90.74
2023-05-14T08:39:31.392Z,89.68
2023-05-14T08:40:31.483Z,91.12
2023-05-14T08:41:31.452Z,88.90
2023-05-14T08:42:31.522Z,91.42
2023-05-14T08:43:31.526Z,87.72
2023-05-14T08:44:31.588Z,90.51
2023-05-14T08:45:31.638Z,89.37
2023-05-14T08:46:31.654Z,90.54
2023-05-14T08:47:31.731Z,89.30
2023-05-14T08:48:31.889Z,89.14
2023-05-14T08:49:31.742Z,90.74
2023-05-14T08:50:31.804Z,89.44
2023-05-14T08:51:31.821Z,89.26
2023-05-14T08:52:31.857Z,89.69
2023-05-14T08:53:31.868Z,90.46
2023-05-14T08:54:31.904Z,88.95
2023-05-14T08:55:31.957Z,90.02
2023-05-14T08:56:31.967Z,86.59
2023-05-14T08:57:32.034Z,88.89
2023-05-14T08:58:32.037Z,88.70
2023-05-14T08:59:32.048Z,89.67
2023-05-14T09:00:32.126Z,89.13
2023-05-14T09:01:32.148Z,88.70
2023-05-14T09:02:32.209Z,87.56
2023-05-14T09:03:32.190Z,88.79
2023-05-14T09:04:32.185Z,86.64
2023-05-14T09:05:32.229Z,89.44
2023-05-14T09:06:32.230Z,83.30
2023-05-14T09:07:32.299Z,87.14
2023-05-14T09:08:32.310Z,90.07
2023-05-14T09:09:32.304Z,87.61
2023-05-14T09:10:32.320Z,87.56
2023-05-14T09:11:32.329Z,91.02
2023-05-14T09:12:32.336Z,88.96
2023-05-14T09:13:32.336Z,89.36
2023-05-14T09:14:32.397Z,88.31
2023-05-14T09:15:32.359Z,82.87
2023-05-14T09:16:32.438Z,86.70
2023-05-14T09:17:32.480Z,86.61
2023-05-14T09:18:32.446Z,88.27
2023-05-14T09:19:32.433Z,77.95
2023-05-14T09:20:32.494Z,88.72
2023-05-14T09:21:33.583Z,88.35
2023-05-14T09:22:32.434Z,86.75
2023-05-14T09:23:32.485Z,85.11
2023-05-14T09:24:32.519Z,85.88
2023-05-14T09:25:32.512Z,91.50
2023-05-14T09:26:32.496Z,86.05
2023-05-14T09:27:32.526Z,83.54
2023-05-14T09:28:32.538Z,84.90
2023-05-14T09:29:32.544Z,87.33
2023-05-14T09:30:32.568Z,88.14
2023-05-14T09:31:32.582Z,85.58
2023-05-14T09:32:32.615Z,86.50
2023-05-14T09:33:32.576Z,84.08
2023-05-14T09:34:32.581Z,85.26
2023-05-14T09:35:32.668Z,83.12
2023-05-14T09:36:32.567Z,85.79
2023-05-14T09:37:32.661Z,84.34
2023-05-14T09:38:32.700Z,86.31
2023-05-14T09:39:32.665Z,82.76
2023-05-14T09:40:32.621Z,83.04
2023-05-14T09:41:32.641Z,84.89
2023-05-14T09:42:32.640Z,81.92
2023-05-14T09:43:32.637Z,86.21
2023-05-14T09:44:32.684Z,87.46
2023-05-14T09:45:32.652Z,87.44
2023-05-14T09:46:32.673Z,86.52
2023-05-14T09:47:32.746Z,84.17
2023-05-14T09:48:32.651Z,77.47
2023-05-14T09:49:32.629Z,81.02
2023-05-14T09:50:32.694Z,84.18
2023-05-14T09:51:32.645Z,85.58
2023-05-14T09:52:32.663Z,85.94
2023-05-14T09:53:32.681Z,80.04
2023-05-14T09:54:32.662Z,81.41
2023-05-14T09:55:32.614Z,82.19
2023-05-14T09:56:32.673Z,80.60
2023-05-14T09:57:32.646Z,83.91
2023-05-14T09:58:32.639Z,83.34
2023-05-14T09:59:32.648Z,82.19
2023-05-14T10:00:32.657Z,82.42
2023-05-14T10:01:32.750Z,81.83
2023-05-14T10:02:32.710Z,79.37
2023-05-14T10:03:32.668Z,78.28
2023-05-14T10:04:32.799Z,86.37
2023-05-14T10:05:32.744Z,78.13
2023-05-14T10:06:32.724Z,79.81
2023-05-14T10:07:32.745Z,80.92
2023-05-14T10:08:32.810Z,78.33
2023-05-14T10:09:32.819Z,82.60
2023-05-14T10:10:32.819Z,85.51
2023-05-14T10:11:32.819Z,75.84
2023-05-14T10:12:32.878Z,76.99
2023-05-14T10:13:32.835Z,76.57
2023-05-14T10:14:32.877Z,81.36
2023-05-14T10:15:32.854Z,81.43
2023-05-14T10:16:32.887Z,83.77
2023-05-14T10:17:32.906Z,82.22
2023-05-14T10:18:32.907Z,84.00
2023-05-14T10:19:32.911Z,79.78
2023-05-14T10:20:32.925Z,75.98
2023-05-14T10:21:32.935Z,80.09
2023-05-14T10:22:32.969Z,83.45
2023-05-14T10:23:32.946Z,85.83
2023-05-14T10:24:33.066Z,79.84
2023-05-14T10:25:33.033Z,86.32
2023-05-14T10:26:33.038Z,81.45
2023-05-14T10:27:33.038Z,84.51
2023-05-14T10:28:33.048Z,73.07
2023-05-14T10:29:33.068Z,81.45
2023-05-14T10:30:33.099Z,77.95
2023-05-14T10:31:33.121Z,79.03
2023-05-14T10:32:33.154Z,79.13
2023-05-14T10:33:33.159Z,76.23
2023-05-14T10:34:33.194Z,79.73
2023-05-14T10:35:33.202Z,76.45
2023-05-14T10:36:33.250Z,80.40
2023-05-14T10:37:33.239Z,75.43
2023-05-14T10:38:33.332Z,71.04
2023-05-14T10:39:33.314Z,75.90
2023-05-14T10:40:33.371Z,82.51
2023-05-14T10:41:33.444Z,81.67
2023-05-14T10:42:33.478Z,77.85
2023-05-14T10:43:33.522Z,81.00
2023-05-14T10:44:33.577Z,84.44
2023-05-14T10:45:33.609Z,77.63
2023-05-14T10:46:33.626Z,82.79
2023-05-14T10:47:33.648Z,84.96
2023-05-14T10:48:33.705Z,75.28
2023-05-14T10:49:43.061Z,82.82
2023-05-14T10:50:34.729Z,82.43
2023-05-14T10:51:33.771Z,81.92
2023-05-14T10:52:33.667Z,83.90
2023-05-14T10:53:33.672Z,82.80
2023-05-14T10:54:33.638Z,76.53
2023-05-14T10:55:33.654Z,82.48
2023-05-14T10:56:33.612Z,85.07
2023-05-14T10:57:33.624Z,76.51
2023-05-14T10:58:33.593Z,84.88
2023-05-14T10:59:33.610Z,81.24
2023-05-14T11:00:33.598Z,85.37
2023-05-14T11:01:33.640Z,79.89
2023-05-14T11:02:33.617Z,85.87
2023-05-14T11:03:33.648Z,80.54
2023-05-14T11:04:33.599Z,81.92
2023-05-14T11:05:33.576Z,80.37
2023-05-14T11:06:33.549Z,79.64
2023-05-14T11:07:33.546Z,75.83
2023-05-14T11:08:33.573Z,81.58
2023-05-14T11:09:33.528Z,79.82
2023-05-14T11:10:33.545Z,72.19
2023-05-14T11:11:33.513Z,70.44
2023-05-14T11:12:33.553Z,81.57
2023-05-14T11:13:33.613Z,83.24
2023-05-14T11:14:33.491Z,79.56
2023-05-14T11:15:33.523Z,73.63
2023-05-14T11:16:33.507Z,85.36
2023-05-14T11:17:33.508Z,77.08
2023-05-14T11:18:33.544Z,73.70
2023-05-14T11:19:33.462Z,78.68
2023-05-14T11:20:33.536Z,80.13
2023-05-14T11:21:33.535Z,85.50
2023-05-14T11:22:33.520Z,76.00
2023-05-14T11:23:33.418Z,76.69
2023-05-14T11:24:33.467Z,82.44
2023-05-14T11:25:33.402Z,75.00
2023-05-14T11:26:33.430Z,79.50
2023-05-14T11:27:33.416Z,85.03
2023-05-14T11:28:33.461Z,78.98
2023-05-14T11:29:33.399Z,73.62
2023-05-14T11:30:33.472Z,74.55
2023-05-14T11:31:33.466Z,82.60
2023-05-14T11:32:33.524Z,85.97
2023-05-14T11:33:33.526Z,83.52
2023-05-14T11:34:33.591Z,76.73
2023-05-14T11:35:33.752Z,82.01
2023-05-14T11:36:33.714Z,77.87
2023-05-14T11:37:33.762Z,81.72
2023-05-14T11:38:33.797Z,85.93
2023-05-14T11:39:33.875Z,75.95
2023-05-14T11:40:33.920Z,85.14
2023-05-14T11:41:33.997Z,80.41
2023-05-14T11:42:34.062Z,82.23
2023-05-14T11:43:34.098Z,79.92
2023-05-14T11:44:34.162Z,76.10
2023-05-14T11:45:34.217Z,83.18
2023-05-14T11:46:34.425Z,83.49
2023-05-14T11:47:34.374Z,85.91
2023-05-14T11:48:34.398Z,79.28
2023-05-14T11:49:34.452Z,80.00
2023-05-14T11:50:34.508Z,76.88
2023-05-14T11:51:34.585Z,80.43
2023-05-14T11:52:34.639Z,80.41
2023-05-14T11:53:34.686Z,76.48
2023-05-14T11:54:34.809Z,76.57
2023-05-14T11:55:34.803Z,83.45
2023-05-14T11:56:34.871Z,77.23
2023-05-14T11:57:34.868Z,77.79
2023-05-14T11:58:34.925Z,78.83
2023-05-14T11:59:35.044Z,82.68
2023-05-14T12:00:35.036Z,74.95
2023-05-14T12:01:35.047Z,78.49
2023-05-14T12:02:35.104Z,74.97
2023-05-14T12:03:35.308Z,81.37
2023-05-14T12:04:35.127Z,73.32
2023-05-14T12:05:35.123Z,76.10
2023-05-14T12:06:35.148Z,85.15
2023-05-14T12:07:35.150Z,80.16
2023-05-14T12:08:35.193Z,84.67
2023-05-14T12:09:35.102Z,76.38
2023-05-14T12:10:35.164Z,77.45
2023-05-14T12:11:35.110Z,78.74
2023-05-14T12:12:36.122Z,77.08
2023-05-14T12:13:35.124Z,83.11
2023-05-14T12:14:35.137Z,79.02
2023-05-14T12:15:35.141Z,78.41
2023-05-14T12:16:37.767Z,78.79
2023-05-14T12:17:35.141Z,83.66
2023-05-14T12:18:35.181Z,87.23
2023-05-14T12:19:35.128Z,78.11
2023-05-14T12:20:35.135Z,83.73
2023-05-14T12:21:35.080Z,81.10
2023-05-14T12:22:36.963Z,86.92
2023-05-14T12:23:35.081Z,82.43
2023-05-14T12:24:35.166Z,86.84
2023-05-14T12:25:35.064Z,83.33
2023-05-14T12:26:35.063Z,78.41
2023-05-14T12:27:35.081Z,77.90
2023-05-14T12:28:37.927Z,80.42
2023-05-14T12:29:35.118Z,89.41
2023-05-14T12:30:35.073Z,80.47
2023-05-14T12:31:35.095Z,83.86
2023-05-14T12:32:35.095Z,78.87
2023-05-14T12:33:35.016Z,81.15
2023-05-14T12:34:37.122Z,79.69
2023-05-14T12:35:35.024Z,79.89
2023-05-14T12:36:34.991Z,77.20
2023-05-14T12:37:34.991Z,81.20
2023-05-14T12:38:34.982Z,77.64
2023-05-14T12:39:34.983Z,85.55
2023-05-14T12:40:35.020Z,82.64
2023-05-14T12:41:35.030Z,75.70
2023-05-14T12:42:35.007Z,78.66
2023-05-14T12:43:34.985Z,82.00
2023-05-14T12:44:34.988Z,86.76
2023-05-14T12:45:35.038Z,81.35
2023-05-14T12:46:35.060Z,84.03
2023-05-14T12:47:35.191Z,83.15
2023-05-14T12:48:35.024Z,82.80